Time;durP1;ratioP1;P1;durP2;ratioP2;P2;SDS_P1;SDS_P2;PMS_P1;PMS_P2;Temp;Humidity;BMP_temperature;BMP_pressure;BME280_temperature;BME280_humidity;BME280_pressure;Samples;Min_cycle;Max_cycle;Signal;HPM_P1;HPM_P2
2023/04/28 00:04:47;;;;;;;15.30;8.98;;;;;;;7.45;100.00;101093.88;10524582;28;20123;-78
2023/04/28 00:09:48;;;;;;;11.68;8.30;;;;;;;7.29;100.00;101078.06;10524264;28;20040;-78
2023/04/28 00:14:48;;;;;;;15.25;8.98;;;;;;;7.20;100.00;101073.16;10524140;28;20036;-78
2023/04/28 00:19:49;;;;;;;16.92;10.07;;;;;;;7.12;100.00;101058.75;10527331;28;20036;-77
2023/04/28 00:24:49;;;;;;;17.17;11.27;;;;;;;7.03;100.00;101046.94;10531206;28;20487;-78
2023/04/28 00:29:50;;;;;;;20.27;11.38;;;;;;;6.93;100.00;101025.44;10532197;28;20067;-78
2023/04/28 00:34:52;;;;;;;19.88;10.75;;;;;;;6.85;100.00;101019.72;10530697;28;20197;-78
2023/04/28 00:39:55;;;;;;;21.92;11.88;;;;;;;6.78;100.00;101030.53;10514015;28;20036;-78
2023/04/28 00:44:56;;;;;;;17.90;11.40;;;;;;;6.74;100.00;101032.91;10529679;28;20028;-78
2023/04/28 00:49:57;;;;;;;18.48;13.38;;;;;;;6.64;100.00;101042.63;10513811;28;20044;-78
2023/04/28 00:54:58;;;;;;;22.45;13.43;;;;;;;6.56;100.00;101032.63;10528448;28;20032;-78
2023/04/28 00:59:58;;;;;;;19.42;13.07;;;;;;;6.48;100.00;101020.81;10530058;28;20055;-77
2023/04/28 01:04:59;;;;;;;21.90;14.88;;;;;;;6.37;100.00;101003.59;10512567;28;20053;-78
2023/04/28 01:09:59;;;;;;;19.38;13.25;;;;;;;6.30;100.00;101008.38;10530837;28;20048;-77
2023/04/28 01:15:00;;;;;;;24.02;17.55;;;;;;;6.31;100.00;101012.78;10528225;28;20124;-77
2023/04/28 01:20:00;;;;;;;22.52;14.63;;;;;;;6.35;100.00;101006.06;10495841;28;20082;-77
2023/04/28 01:25:02;;;;;;;21.25;14.75;;;;;;;6.36;100.00;100996.59;10529460;28;20036;-77
2023/04/28 01:30:03;;;;;;;26.42;15.82;;;;;;;6.35;100.00;100982.69;10528502;28;20392;-77
2023/04/28 01:35:04;;;;;;;28.70;15.07;;;;;;;6.39;100.00;100976.88;10511047;28;20119;-78
2023/04/28 01:40:05;;;;;;;23.38;14.55;;;;;;;6.42;100.00;100994.41;10510440;28;20044;-77
2023/04/28 01:45:06;;;;;;;22.02;14.23;;;;;;;6.52;100.00;100990.69;10528806;28;20040;-78
2023/04/28 01:50:07;;;;;;;23.48;15.15;;;;;;;6.55;100.00;100973.59;10528008;28;20036;-77
2023/04/28 01:55:08;;;;;;;22.38;16.27;;;;;;;6.53;100.00;100976.91;10528255;28;20044;-77
2023/04/28 02:00:09;;;;;;;27.58;16.35;;;;;;;6.52;100.00;100977.69;10512251;28;20047;-77
2023/04/28 02:05:10;;;;;;;20.40;14.00;;;;;;;6.56;100.00;100988.41;10522646;28;20467;-77
2023/04/28 02:10:11;;;;;;;25.60;19.20;;;;;;;6.60;100.00;100986.91;10529022;28;20050;-76
2023/04/28 02:15:12;;;;;;;25.58;19.20;;;;;;;6.56;100.00;100978.00;10512845;28;20039;-77
2023/04/28 02:20:13;;;;;;;28.42;18.27;;;;;;;6.54;100.00;100960.50;10510612;28;20040;-77
2023/04/28 02:25:14;;;;;;;25.97;20.33;;;;;;;6.54;100.00;100951.00;10525099;28;20108;-77
2023/04/28 02:30:14;;;;;;;26.98;18.88;;;;;;;6.57;100.00;100960.69;10526533;28;20092;-77
2023/04/28 02:35:15;;;;;;;30.63;20.75;;;;;;;6.58;100.00;100957.28;10526672;28;20417;-77
2023/04/28 02:40:15;;;;;;;24.23;19.02;;;;;;;6.63;100.00;100961.09;10507737;28;20039;-75
2023/04/28 02:45:16;;;;;;;28.85;19.05;;;;;;;6.66;100.00;100947.41;10526623;28;20081;-76
2023/04/28 02:50:17;;;;;;;26.88;19.00;;;;;;;6.69;100.00;100947.59;10525064;28;20040;-76
2023/04/28 02:55:22;;;;;;;29.58;21.05;;;;;;;6.72;100.00;100932.19;10526651;28;20047;-76
2023/04/28 03:00:23;;;;;;;25.17;16.88;;;;;;;6.73;100.00;100927.06;10524992;28;20051;-76
2023/04/28 03:05:23;;;;;;;25.88;18.85;;;;;;;6.76;100.00;100900.38;10524680;28;20044;-76
2023/04/28 03:10:24;;;;;;;31.67;20.10;;;;;;;6.74;100.00;100873.34;10526196;28;20039;-76
2023/04/28 03:15:25;;;;;;;28.85;19.63;;;;;;;6.65;100.00;100819.03;10525931;28;20606;-75
2023/04/28 03:20:26;;;;;;;26.25;18.20;;;;;;;6.50;100.00;100797.28;10525659;28;20048;-74
2023/04/28 03:25:26;;;;;;;27.73;20.15;;;;;;;6.59;100.00;100835.19;10525180;28;20036;-75
2023/04/28 03:30:27;;;;;;;27.65;20.88;;;;;;;6.81;100.00;100872.94;10508164;28;20436;-74
2023/04/28 03:35:27;;;;;;;29.55;18.17;;;;;;;7.03;100.00;100890.78;10522515;28;20040;-75
2023/04/28 03:40:28;;;;;;;31.02;20.52;;;;;;;7.11;100.00;100887.75;10506753;28;20487;-75
2023/04/28 03:45:28;;;;;;;28.35;18.80;;;;;;;7.08;100.00;100879.75;10525219;28;20505;-75
2023/04/28 03:50:29;;;;;;;30.38;19.38;;;;;;;7.10;100.00;100863.44;10523449;28;20070;-77
2023/04/28 03:55:29;;;;;;;36.67;21.75;;;;;;;7.10;100.00;100860.84;10523188;28;20119;-75
2023/04/28 04:00:30;;;;;;;33.00;21.92;;;;;;;7.13;100.00;100868.84;10524132;28;20514;-75
2023/04/28 04:05:30;;;;;;;28.92;20.35;;;;;;;7.26;100.00;100872.19;10507105;28;20112;-75
2023/04/28 04:10:31;;;;;;;31.90;17.92;;;;;;;7.30;100.00;100866.38;10523254;28;20445;-75
2023/04/28 04:15:31;;;;;;;33.80;20.45;;;;;;;7.28;100.00;100857.56;10524238;28;20162;-75
2023/04/28 04:20:32;;;;;;;38.10;23.95;;;;;;;7.26;100.00;100857.47;10524246;28;20060;-75
2023/04/28 04:25:32;;;;;;;32.17;23.00;;;;;;;7.33;100.00;100854.41;10504552;28;20073;-75
2023/04/28 04:30:33;;;;;;;29.98;20.80;;;;;;;7.39;100.00;100835.69;10521829;28;20126;-74
2023/04/28 04:35:33;;;;;;;36.85;22.88;;;;;;;7.40;100.00;100846.97;10523015;28;20567;-74
2023/04/28 04:40:34;;;;;;;32.63;22.50;;;;;;;7.51;100.00;100845.03;10523085;28;20555;-75
2023/04/28 04:45:35;;;;;;;30.85;19.52;;;;;;;7.60;100.00;100851.69;10521216;28;20052;-75
2023/04/28 04:50:35;;;;;;;24.55;18.25;;;;;;;7.68;100.00;100835.59;10516434;28;20120;-76
2023/04/28 04:55:36;;;;;;;32.75;21.15;;;;;;;7.72;100.00;100828.06;10480709;28;20048;-76
2023/04/28 05:00:37;;;;;;;32.58;21.85;;;;;;;7.84;100.00;100829.59;10489536;28;20181;-77
2023/04/28 05:05:37;;;;;;;28.38;18.67;;;;;;;7.88;100.00;100832.44;10523012;28;20236;-76
2023/04/28 05:10:38;;;;;;;30.45;18.23;;;;;;;7.94;100.00;100826.72;10527815;28;20040;-76
2023/04/28 05:15:39;;;;;;;32.23;20.80;;;;;;;8.05;100.00;100824.72;10529686;28;20040;-77
2023/04/28 05:20:40;;;;;;;27.55;18.27;;;;;;;8.17;100.00;100819.31;10528101;28;20122;-77
2023/04/28 05:25:40;;;;;;;35.53;17.35;;;;;;;8.22;100.00;100815.25;10529500;28;20050;-76
2023/04/28 05:30:43;;;;;;;24.38;16.23;;;;;;;8.28;100.00;100823.41;10528404;28;20558;-76
2023/04/28 05:35:44;;;;;;;20.75;14.50;;;;;;;8.32;100.00;100821.88;10524803;28;20091;-75
2023/04/28 05:40:44;;;;;;;26.23;15.75;;;;;;;8.35;100.00;100822.03;10523081;28;20553;-76
2023/04/28 05:45:45;;;;;;;27.38;17.33;;;;;;;8.49;100.00;100825.47;10529840;28;20115;-75
2023/04/28 05:50:46;;;;;;;27.15;16.63;;;;;;;8.76;100.00;100826.06;10510937;28;20039;-76
2023/04/28 05:55:47;;;;;;;29.45;15.63;;;;;;;9.09;100.00;100814.75;10509377;28;20075;-76
2023/04/28 06:00:47;;;;;;;25.65;15.07;;;;;;;9.51;100.00;100814.28;10526262;28;20451;-76
2023/04/28 06:05:48;;;;;;;23.50;13.27;;;;;;;9.68;100.00;100810.78;10526844;28;20118;-76
2023/04/28 06:10:48;;;;;;;20.98;15.85;;;;;;;9.86;100.00;100802.09;10508933;28;20046;-75
2023/04/28 06:15:49;;;;;;;17.40;12.13;;;;;;;9.92;100.00;100810.22;10525721;28;20063;-76
2023/04/28 06:20:49;;;;;;;19.25;12.75;;;;;;;9.86;100.00;100807.31;10494990;28;20047;-76
2023/04/28 06:25:50;;;;;;;20.33;13.93;;;;;;;9.90;100.00;100816.22;10523645;28;20495;-76
2023/04/28 06:30:50;;;;;;;16.35;11.38;;;;;;;10.07;100.00;100812.72;10521248;28;20119;-76
2023/04/28 06:35:51;;;;;;;19.60;12.63;;;;;;;10.29;100.00;100812.00;10509819;28;20507;-77
2023/04/28 06:40:52;;;;;;;22.52;14.10;;;;;;;10.60;100.00;100809.09;10524266;28;20059;-76
2023/04/28 06:45:52;;;;;;;17.77;13.07;;;;;;;10.72;100.00;100814.91;10523149;28;20462;-77
2023/04/28 06:50:53;;;;;;;26.48;16.13;;;;;;;10.55;100.00;100807.16;10523450;28;20128;-78
2023/04/28 06:55:53;;;;;;;21.60;14.30;;;;;;;10.47;100.00;100799.78;10525887;28;20111;-76
2023/04/28 07:00:54;;;;;;;19.70;14.77;;;;;;;10.36;100.00;100796.63;10505538;28;20119;-77
2023/04/28 07:05:54;;;;;;;21.98;13.40;;;;;;;10.18;100.00;100807.09;10523082;28;20135;-77
2023/04/28 07:10:55;;;;;;;21.25;14.70;;;;;;;10.04;100.00;100806.44;10522207;28;20127;-76
2023/04/28 07:15:55;;;;;;;19.75;16.80;;;;;;;10.02;100.00;100806.38;10520436;28;20051;-77
2023/04/28 07:20:56;;;;;;;17.75;13.93;;;;;;;10.18;100.00;100810.59;10521301;28;20055;-77
2023/04/28 07:25:57;;;;;;;19.92;14.57;;;;;;;10.60;100.00;100796.91;10487258;28;20040;-76
2023/04/28 07:30:57;;;;;;;17.77;13.02;;;;;;;11.20;100.00;100790.88;10515792;28;20031;-77
2023/04/28 07:35:58;;;;;;;19.52;10.80;;;;;;;12.25;100.00;100783.84;10522222;28;20655;-77
2023/04/28 07:40:58;;;;;;;16.23;10.63;;;;;;;12.01;100.00;100768.91;10516675;28;20158;-76
2023/04/28 07:45:59;;;;;;;16.10;10.55;;;;;;;12.17;100.00;100778.31;10514913;28;20048;-75
2023/04/28 07:51:00;;;;;;;13.35;8.90;;;;;;;12.40;100.00;100777.41;10506045;28;20051;-75
2023/04/28 07:56:01;;;;;;;17.70;8.65;;;;;;;12.75;100.00;100769.97;10518693;28;20475;-76
2023/04/28 08:01:01;;;;;;;15.18;9.30;;;;;;;13.27;100.00;100777.94;10492673;28;20050;-76
2023/04/28 08:06:02;;;;;;;15.60;9.77;;;;;;;13.26;100.00;100770.91;10506956;28;20050;-75
2023/04/28 08:11:03;;;;;;;19.48;10.07;;;;;;;13.25;100.00;100779.63;10490871;28;20060;-74
2023/04/28 08:16:03;;;;;;;14.77;10.07;;;;;;;12.95;100.00;100785.56;10523282;28;20040;-75
2023/04/28 08:21:04;;;;;;;13.70;9.25;;;;;;;12.81;100.00;100788.59;10503249;28;20032;-76
2023/04/28 08:26:04;;;;;;;15.80;9.73;;;;;;;12.77;100.00;100802.44;10517603;28;20040;-75
2023/04/28 08:31:05;;;;;;;15.85;10.10;;;;;;;13.16;100.00;100802.09;10500560;28;20119;-75
2023/04/28 08:36:06;;;;;;;15.70;11.13;;;;;;;13.31;100.00;100801.78;10515911;28;20047;-76
2023/04/28 08:41:07;;;;;;;15.23;11.87;;;;;;;13.42;100.00;100803.94;10519930;28;20032;-77
2023/04/28 08:46:08;;;;;;;16.20;11.77;;;;;;;13.28;100.00;100800.75;10520718;28;20032;-78
2023/04/28 08:51:10;;;;;;;16.23;11.18;;;;;;;13.32;100.00;100806.19;10500000;28;20123;-77
2023/04/28 08:56:12;;;;;;;14.68;10.40;;;;;;;13.34;100.00;100798.34;10499087;28;20028;-76
2023/04/28 09:01:12;;;;;;;;;;;;;;;13.57;100.00;100808.81;10506649;28;20141;-77
2023/04/28 09:06:13;;;;;;;22.87;11.07;;;;;;;13.68;100.00;100806.56;10517830;28;20275;-76
2023/04/28 09:11:15;;;;;;;15.43;11.52;;;;;;;13.75;100.00;100800.66;10498061;28;20346;-76
2023/04/28 09:16:15;;;;;;;16.65;13.25;;;;;;;13.55;100.00;100815.75;10520742;28;20040;-75
2023/04/28 09:21:16;;;;;;;12.35;9.85;;;;;;;13.77;100.00;100812.13;10513951;28;20028;-75
2023/04/28 09:26:17;;;;;;;13.20;8.60;;;;;;;13.78;100.00;100809.53;10505712;28;20135;-76
2023/04/28 09:31:22;;;;;;;11.68;7.82;;;;;;;13.83;100.00;100806.16;10526086;28;20607;-76
2023/04/28 09:36:30;;;;;;;14.32;10.65;;;;;;;13.70;100.00;100811.00;10475698;28;20044;-78
2023/04/28 09:41:51;;;;;;;11.30;8.75;;;;;;;13.48;100.00;100814.66;10517991;28;20119;-76
2023/04/28 09:46:51;;;;;;;13.30;9.73;;;;;;;13.20;100.00;100817.16;10514693;28;20120;-76
2023/04/28 09:51:52;;;;;;;15.93;10.02;;;;;;;13.11;100.00;100819.44;10525923;28;20482;-75
2023/04/28 09:56:52;;;;;;;17.40;13.15;;;;;;;13.14;100.00;100818.69;10503839;28;20124;-76
2023/04/28 10:01:53;;;;;;;14.95;11.93;;;;;;;13.29;100.00;100819.22;10524588;28;20064;-76
2023/04/28 10:06:53;;;;;;;16.27;10.98;;;;;;;13.59;100.00;100830.78;10525246;28;20375;-75
2023/04/28 10:11:54;;;;;;;16.83;12.68;;;;;;;13.71;100.00;100819.81;10486484;28;20127;-75
2023/04/28 10:16:55;;;;;;;25.42;16.77;;;;;;;13.70;100.00;100815.41;10514772;28;20422;-75
2023/04/28 10:22:27;;;;;;;15.98;11.93;;;;;;;13.79;100.00;100813.09;10485586;28;20068;-75
2023/04/28 10:27:28;;;;;;;12.48;10.18;;;;;;;14.84;100.00;100804.94;10496130;28;20047;-75
2023/04/28 10:32:29;;;;;;;17.67;14.05;;;;;;;16.18;100.00;100790.88;10498895;28;20503;-74
2023/04/28 10:38:04;;;;;;;15.45;8.82;;;;;;;16.25;100.00;100781.34;10510993;28;20119;-75
2023/04/28 10:43:05;;;;;;;18.00;12.77;;;;;;;15.51;100.00;100783.94;10504333;28;20044;-74
2023/04/28 10:48:06;;;;;;;20.73;14.17;;;;;;;15.19;100.00;100780.44;10500057;28;20038;-74
2023/04/28 10:53:06;;;;;;;9.93;7.75;;;;;;;14.90;100.00;100784.03;10509857;28;20137;-74
2023/04/28 10:58:18;;;;;;;10.48;7.13;;;;;;;15.44;100.00;100783.75;10508713;28;20056;-75
2023/04/28 11:03:50;;;;;;;8.18;6.32;;;;;;;15.86;100.00;100773.38;10507900;28;20044;-75
2023/04/28 11:08:55;;;;;;;7.80;6.20;;;;;;;15.91;100.00;100773.53;10513038;28;20040;-76
2023/04/28 11:14:17;;;;;;;10.45;7.18;;;;;;;15.79;100.00;100779.34;10509035;28;20043;-74
2023/04/28 11:19:19;;;;;;;8.30;6.15;;;;;;;15.72;100.00;100769.50;10498825;28;20135;-76
2023/04/28 11:24:19;;;;;;;10.57;7.47;;;;;;;15.81;100.00;100767.09;10510512;28;20100;-75
2023/04/28 11:29:49;;;;;;;8.13;5.97;;;;;;;17.31;100.00;100752.72;10484156;28;20094;-75
2023/04/28 11:34:50;;;;;;;9.75;6.65;;;;;;;20.52;100.00;100750.25;10487718;28;20039;-76
2023/04/28 11:39:51;;;;;;;6.00;5.32;;;;;;;20.89;100.00;100738.88;10489102;28;20063;-75
2023/04/28 11:44:52;;;;;;;6.80;6.10;;;;;;;20.00;100.00;100745.50;10501645;28;20090;-73
2023/04/28 11:49:53;;;;;;;7.28;5.55;;;;;;;20.39;100.00;100739.56;10493016;28;20036;-76
2023/04/28 11:54:58;;;;;;;5.20;4.57;;;;;;;19.99;100.00;100735.75;10509435;28;20448;-77
2023/04/28 12:00:18;;;;;;;7.43;3.85;;;;;;;18.70;100.00;100738.03;10503945;28;20032;-74
2023/04/28 12:05:20;;;;;;;5.10;3.95;;;;;;;17.17;100.00;100745.41;10512206;28;20059;-76
2023/04/28 12:10:21;;;;;;;7.75;5.90;;;;;;;16.53;100.00;100744.97;10513023;28;20035;-76
2023/04/28 12:15:23;;;;;;;7.90;5.28;;;;;;;16.46;100.00;100745.72;10518472;28;20050;-74
2023/04/28 12:20:53;;;;;;;;;;;;;;;16.76;100.00;100745.47;10522087;28;20127;-77
2023/04/28 12:25:54;;;;;;;9.73;4.13;;;;;;;17.52;100.00;100744.25;10509248;28;20084;-76
2023/04/28 12:31:04;;;;;;;5.25;2.90;;;;;;;17.88;100.00;100740.44;10520277;28;20073;-74
2023/04/28 12:36:08;;;;;;;4.82;2.72;;;;;;;17.87;100.00;100743.94;10512543;28;20531;-74
2023/04/28 12:41:08;;;;;;;3.80;2.30;;;;;;;17.97;100.00;100742.34;10523385;28;20036;-74
2023/04/28 12:46:09;;;;;;;3.53;2.15;;;;;;;18.23;100.00;100741.88;10525322;28;20045;-75
2023/04/28 12:51:10;;;;;;;2.87;1.67;;;;;;;17.85;100.00;100748.31;10491873;28;20028;-74
2023/04/28 12:56:10;;;;;;;5.25;4.75;;;;;;;17.34;100.00;100750.13;10507892;28;20032;-76
2023/04/28 13:01:11;;;;;;;5.40;2.75;;;;;;;18.16;100.00;100746.16;10522436;28;20109;-77
2023/04/28 13:06:12;;;;;;;5.47;4.97;;;;;;;20.85;100.00;100753.06;10499535;28;20037;-78
2023/04/28 13:11:12;;;;;;;4.33;3.13;;;;;;;22.06;100.00;100745.19;10519971;28;20109;-77
2023/04/28 13:16:13;;;;;;;2.80;1.50;;;;;;;20.68;100.00;100749.44;10520883;28;20509;-76
2023/04/28 13:21:21;;;;;;;2.10;1.47;;;;;;;20.76;100.00;100751.22;10527978;28;20035;-76
2023/04/28 13:26:26;;;;;;;1.60;1.40;;;;;;;19.59;100.00;100752.25;10525292;28;20048;-77
2023/04/28 13:31:28;;;;;;;2.47;1.48;;;;;;;19.24;100.00;100751.03;10529008;28;20047;-76
2023/04/28 13:36:29;;;;;;;2.33;1.13;;;;;;;19.17;100.00;100759.81;10507200;28;20442;-79
2023/04/28 13:41:30;;;;;;;3.40;1.87;;;;;;;18.87;100.00;100761.22;10509604;28;20037;-79
2023/04/28 13:46:30;;;;;;;5.35;4.00;;;;;;;18.87;100.00;100761.22;10518463;28;20404;-77
2023/04/28 13:51:35;;;;;;;5.00;3.22;;;;;;;18.45;100.00;100753.63;10527130;28;20121;-75
2023/04/28 13:56:36;;;;;;;5.68;4.10;;;;;;;19.28;100.00;100770.53;10523611;28;20051;-77
2023/04/28 14:01:37;;;;;;;5.43;1.50;;;;;;;18.25;100.00;100774.56;10520034;28;20097;-75
2023/04/28 14:06:38;;;;;;;2.75;2.03;;;;;;;17.16;100.00;100796.53;10507763;28;20511;-75
2023/04/28 14:11:39;;;;;;;8.00;3.33;;;;;;;16.37;100.00;100812.44;10512911;28;20094;-75
2023/04/28 14:16:40;;;;;;;5.65;3.42;;;;;;;15.89;100.00;100820.13;10522173;28;20171;-76
2023/04/28 14:21:41;;;;;;;7.30;3.40;;;;;;;15.51;100.00;100826.13;10507051;28;20408;-77
2023/04/28 14:26:42;;;;;;;6.03;4.20;;;;;;;15.28;100.00;100833.44;10524798;28;20032;-77
2023/04/28 14:31:43;;;;;;;13.75;10.00;;;;;;;15.12;100.00;100827.72;10525530;28;20050;-74
2023/04/28 14:36:43;;;;;;;6.65;5.90;;;;;;;14.91;100.00;100842.91;10513681;28;20628;-73
2023/04/28 14:41:44;;;;;;;7.32;4.57;;;;;;;14.88;100.00;100846.34;10512003;28;20115;-74
2023/04/28 14:46:45;;;;;;;6.30;3.97;;;;;;;15.65;100.00;100834.44;10505244;28;20037;-75
2023/04/28 14:51:46;;;;;;;161.50;131.02;;;;;;;16.29;100.00;100838.66;10522403;28;20042;-75
2023/04/28 14:56:50;;;;;;;124.43;76.88;;;;;;;16.31;100.00;100839.59;10484655;28;20131;-76
2023/04/28 15:01:50;;;;;;;8.75;3.90;;;;;;;15.95;100.00;100845.75;10518146;28;20040;-76
2023/04/28 15:06:51;;;;;;;47.40;39.13;;;;;;;15.48;100.00;100852.44;10509906;28;20032;-75
2023/04/28 15:11:51;;;;;;;22.70;16.63;;;;;;;15.17;100.00;100850.69;10517850;28;20752;-77
2023/04/28 15:16:52;;;;;;;12.30;8.75;;;;;;;14.94;100.00;100854.44;10520443;28;20127;-77
2023/04/28 15:21:54;;;;;;;20.60;17.35;;;;;;;14.89;100.00;100855.16;10525435;28;20055;-77
2023/04/28 15:26:55;;;;;;;7.00;5.00;;;;;;;14.75;100.00;100865.25;10522175;28;20036;-77
2023/04/28 15:31:57;;;;;;;9.45;6.18;;;;;;;14.47;100.00;100859.09;10523260;28;20072;-77
2023/04/28 15:36:57;;;;;;;6.22;4.70;;;;;;;14.37;100.00;100866.72;10525349;28;20131;-76
2023/04/28 15:41:58;;;;;;;6.55;4.45;;;;;;;14.17;100.00;100878.34;10522312;28;20476;-76
2023/04/28 15:46:59;;;;;;;4.43;3.22;;;;;;;14.05;100.00;100878.84;10513912;28;20071;-77
2023/04/28 15:51:59;;;;;;;6.90;3.92;;;;;;;13.99;100.00;100883.88;10524980;28;20055;-76
2023/04/28 15:57:00;;;;;;;5.82;3.30;;;;;;;13.96;100.00;100887.28;10524191;28;20042;-76
2023/04/28 16:02:01;;;;;;;4.82;3.53;;;;;;;14.06;100.00;100886.75;10524629;28;20060;-77
2023/04/28 16:07:01;;;;;;;9.93;4.45;;;;;;;14.00;100.00;100891.81;10520752;28;20028;-76
2023/04/28 16:12:03;;;;;;;4.88;3.50;;;;;;;14.00;100.00;100896.19;10523168;28;20044;-76
2023/04/28 16:17:03;;;;;;;7.67;4.63;;;;;;;13.97;100.00;100896.09;10523489;28;20059;-76
2023/04/28 16:22:04;;;;;;;5.50;4.40;;;;;;;14.09;100.00;100891.25;10523640;28;20051;-76
2023/04/28 16:27:04;;;;;;;6.65;3.92;;;;;;;14.11;100.00;100897.47;10523387;28;20050;-77
2023/04/28 16:32:05;;;;;;;5.35;3.42;;;;;;;14.01;100.00;100892.72;10524344;28;20124;-76
2023/04/28 16:37:06;;;;;;;8.10;4.80;;;;;;;13.98;100.00;100896.13;10516928;28;20078;-76
2023/04/28 16:42:06;;;;;;;7.22;5.00;;;;;;;13.88;100.00;100896.66;10515417;28;20146;-75
2023/04/28 16:47:07;;;;;;;7.18;4.57;;;;;;;13.74;100.00;100897.06;10505975;28;20135;-76
2023/04/28 16:52:08;;;;;;;7.05;4.38;;;;;;;13.56;100.00;100905.22;10508136;28;20143;-76
2023/04/28 16:57:08;;;;;;;8.07;5.15;;;;;;;13.44;100.00;100905.66;10512844;28;20556;-76
2023/04/28 17:02:09;;;;;;;8.05;6.20;;;;;;;13.40;100.00;100900.22;10521789;28;20123;-76
2023/04/28 17:07:10;;;;;;;9.18;6.13;;;;;;;13.40;100.00;100898.47;10518942;28;20045;-76
2023/04/28 17:12:10;;;;;;;13.70;5.75;;;;;;;13.54;100.00;100896.38;10521289;28;20447;-75
2023/04/28 17:17:10;;;;;;;9.25;6.65;;;;;;;13.63;100.00;100893.16;10527877;28;20123;-75
2023/04/28 17:22:11;;;;;;;8.65;5.20;;;;;;;13.59;100.00;100901.78;10527035;28;20123;-76
2023/04/28 17:27:13;;;;;;;8.80;6.53;;;;;;;13.50;100.00;100898.00;10518199;28;20036;-76
2023/04/28 17:32:13;;;;;;;9.25;6.43;;;;;;;13.47;100.00;100894.38;10508077;28;21653;-76
2023/04/28 17:37:14;;;;;;;8.68;4.55;;;;;;;13.46;100.00;100906.59;10500581;28;20044;-75
2023/04/28 17:42:15;;;;;;;12.98;5.13;;;;;;;13.43;100.00;100909.13;10528594;28;20486;-76
2023/04/28 17:47:16;;;;;;;6.63;4.53;;;;;;;13.35;100.00;100908.81;10518784;28;20057;-75
2023/04/28 17:52:16;;;;;;;10.18;6.00;;;;;;;13.30;100.00;100920.00;10524981;28;20582;-75
2023/04/28 17:57:17;;;;;;;8.00;5.35;;;;;;;13.24;100.00;100914.50;10529104;28;20133;-75
2023/04/28 18:02:18;;;;;;;11.18;5.97;;;;;;;13.17;100.00;100922.16;10524327;28;20123;-75
2023/04/28 18:07:19;;;;;;;10.73;6.15;;;;;;;13.18;100.00;100921.31;10514680;28;20117;-76
2023/04/28 18:12:19;;;;;;;8.48;6.85;;;;;;;13.16;100.00;100928.25;10518348;28;20564;-75
2023/04/28 18:17:21;;;;;;;10.00;5.78;;;;;;;13.14;100.00;100931.66;10522804;28;20119;-77
2023/04/28 18:22:22;;;;;;;;;;;;;;;13.16;100.00;100922.13;10519207;28;20121;-75
2023/04/28 18:27:23;;;;;;;7.43;4.95;;;;;;;13.07;100.00;100939.31;10521645;28;20061;-75
2023/04/28 18:32:23;;;;;;;9.55;5.40;;;;;;;13.05;100.00;100946.25;10523054;28;20482;-74
2023/04/28 18:37:24;;;;;;;9.13;5.85;;;;;;;13.01;100.00;100953.94;10510027;28;20043;-75
2023/04/28 18:42:27;;;;;;;7.50;4.97;;;;;;;12.99;100.00;100956.50;10523803;28;20766;-75
2023/04/28 18:47:28;;;;;;;7.40;4.25;;;;;;;12.85;100.00;100958.59;10524472;28;20093;-74
2023/04/28 18:52:28;;;;;;;9.52;5.10;;;;;;;12.70;100.00;100964.13;10503332;28;20109;-74
2023/04/28 18:57:29;;;;;;;8.02;4.50;;;;;;;12.57;100.00;100967.97;10523136;28;20118;-73
2023/04/28 19:02:30;;;;;;;6.53;4.20;;;;;;;12.47;100.00;100966.72;10506147;28;20162;-74
2023/04/28 19:07:31;;;;;;;8.95;5.97;;;;;;;12.40;100.00;100979.50;10512104;28;20043;-74
2023/04/28 19:12:32;;;;;;;9.05;5.68;;;;;;;12.33;100.00;100983.59;10518395;28;20089;-75
2023/04/28 19:17:32;;;;;;;9.25;6.57;;;;;;;12.28;100.00;100990.38;10517835;28;20441;-74
2023/04/28 19:22:34;;;;;;;17.48;7.68;;;;;;;12.30;100.00;100996.59;10520226;28;20081;-74
2023/04/28 19:27:36;;;;;;;10.52;7.53;;;;;;;12.29;100.00;101008.81;10520259;28;20399;-74
2023/04/28 19:32:38;;;;;;;7.70;5.82;;;;;;;12.26;100.00;101013.91;10509727;28;20772;-74
2023/04/28 19:37:38;;;;;;;10.63;7.38;;;;;;;12.18;100.00;101026.72;10502431;28;20081;-74
2023/04/28 19:42:38;;;;;;;10.85;7.70;;;;;;;11.96;100.00;101031.81;10522826;28;20511;-74
2023/04/28 19:47:39;;;;;;;11.55;7.40;;;;;;;11.74;100.00;101029.13;10521334;28;20071;-75
2023/04/28 19:52:40;;;;;;;13.32;7.80;;;;;;;11.66;100.00;101040.97;10515064;28;20051;-74
2023/04/28 19:57:41;;;;;;;9.90;7.45;;;;;;;11.58;100.00;101050.22;10522182;28;20071;-75
2023/04/28 20:02:43;;;;;;;11.65;7.72;;;;;;;11.46;100.00;101053.19;10523947;28;20040;-75
2023/04/28 20:07:43;;;;;;;11.27;8.70;;;;;;;11.37;100.00;101051.00;10523039;28;20054;-75
2023/04/28 20:12:44;;;;;;;12.73;9.07;;;;;;;11.28;100.00;101059.34;10504602;28;20345;-75
2023/04/28 20:17:44;;;;;;;15.13;10.15;;;;;;;11.23;100.00;101073.03;10519205;28;20162;-76
2023/04/28 20:22:47;;;;;;;12.48;8.73;;;;;;;11.24;100.00;101069.59;10521075;28;20040;-76
2023/04/28 20:27:48;;;;;;;13.52;9.55;;;;;;;11.23;100.00;101076.56;10521313;28;20040;-76
2023/04/28 20:32:48;;;;;;;12.63;9.68;;;;;;;11.22;100.00;101073.84;10519980;28;20110;-76
2023/04/28 20:37:49;;;;;;;11.80;9.25;;;;;;;11.18;100.00;101080.69;10520356;28;20511;-76
2023/04/28 20:42:49;;;;;;;16.67;11.98;;;;;;;11.18;100.00;101079.75;10526857;28;20046;-75
2023/04/28 20:47:50;;;;;;;18.45;13.38;;;;;;;11.14;100.00;101086.59;10529549;28;20130;-76
2023/04/28 20:52:51;;;;;;;19.63;12.70;;;;;;;11.16;100.00;101095.44;10529647;28;20196;-75
2023/04/28 20:57:51;;;;;;;20.67;13.13;;;;;;;11.16;100.00;101090.19;10521021;28;20040;-75
2023/04/28 21:02:52;;;;;;;19.23;13.18;;;;;;;11.16;100.00;101093.69;10530319;28;20136;-75
2023/04/28 21:07:52;;;;;;;23.35;14.30;;;;;;;11.16;100.00;101092.81;10510855;28;20127;-75
2023/04/28 21:12:53;;;;;;;21.40;14.07;;;;;;;11.16;100.00;101100.66;10528555;28;20083;-75
2023/04/28 21:17:54;;;;;;;18.48;11.98;;;;;;;11.11;100.00;101104.78;10530444;28;20135;-77
2023/04/28 21:22:54;;;;;;;23.48;14.10;;;;;;;11.04;100.00;101103.56;10494174;28;20065;-77
2023/04/28 21:27:55;;;;;;;21.25;14.80;;;;;;;10.95;100.00;101110.97;10528225;28;20540;-75
2023/04/28 21:32:55;;;;;;;26.50;16.05;;;;;;;10.87;100.00;101102.75;10529650;28;20150;-74
2023/04/28 21:37:56;;;;;;;27.23;18.77;;;;;;;10.81;100.00;101100.69;10525035;28;20046;-75
2023/04/28 21:42:56;;;;;;;36.63;19.75;;;;;;;10.71;100.00;101109.81;10528368;28;20177;-74
2023/04/28 21:47:58;;;;;;;32.17;19.48;;;;;;;10.62;100.00;101114.59;10526820;28;20036;-75
2023/04/28 21:52:59;;;;;;;30.38;20.25;;;;;;;10.56;100.00;101107.28;10525536;28;20083;-75
2023/04/28 21:57:59;;;;;;;33.50;21.02;;;;;;;10.49;100.00;101104.31;10527639;28;20127;-75
2023/04/28 22:03:00;;;;;;;33.35;20.88;;;;;;;10.39;100.00;101106.44;10521330;28;20055;-74
2023/04/28 22:08:00;;;;;;;38.63;20.20;;;;;;;10.36;100.00;101115.78;10507570;28;20435;-74
2023/04/28 22:13:01;;;;;;;34.15;20.08;;;;;;;10.27;100.00;101117.09;10526023;28;20032;-75
2023/04/28 22:18:02;;;;;;;39.75;22.65;;;;;;;10.20;100.00;101122.84;10522030;28;20506;-75
2023/04/28 22:23:03;;;;;;;42.78;24.55;;;;;;;10.15;100.00;101126.91;10528560;28;20394;-74
2023/04/28 22:28:03;;;;;;;48.90;26.55;;;;;;;10.12;100.00;101121.53;10527236;28;20047;-75
2023/04/28 22:33:04;;;;;;;46.60;26.83;;;;;;;10.10;100.00;101121.47;10524924;28;20071;-75
2023/04/28 22:38:05;;;;;;;54.03;25.45;;;;;;;10.09;100.00;101124.88;10525439;28;20044;-75